Time;durP1;ratioP1;P1;durP2;ratioP2;P2;SDS_P1;SDS_P2;PMS_P1;PMS_P2;Temp;Humidity;BMP_temperature;BMP_pressure;BME280_temperature;BME280_humidity;BME280_pressure;Samples;Min_cycle;Max_cycle;Signal;HPM_P1;HPM_P2
2022/06/06 00:02:02;;;;;;;9.93;5.22;;;13.00;93.90;;;;;;5080677;28;20102;-78
2022/06/06 00:04:28;;;;;;;7.38;5.68;;;13.00;94.00;;;;;;5072731;28;20036;-78
2022/06/06 00:06:56;;;;;;;8.73;4.68;;;12.90;94.10;;;;;;5072400;28;20485;-78
2022/06/06 00:09:22;;;;;;;6.65;4.88;;;13.00;94.20;;;;;;5067871;28;20065;-77
2022/06/06 00:11:48;;;;;;;8.02;5.45;;;12.90;94.20;;;;;;5072130;28;20028;-77
2022/06/06 00:14:17;;;;;;;9.52;4.40;;;12.90;94.30;;;;;;5067238;28;20028;-77
2022/06/06 00:16:43;;;;;;;10.10;4.88;;;12.90;94.40;;;;;;5063026;28;20155;-76
2022/06/06 00:19:10;;;;;;;6.10;5.13;;;12.90;94.50;;;;;;5071897;28;20029;-75
2022/06/06 00:21:37;;;;;;;6.18;4.63;;;12.90;94.50;;;;;;5067205;28;20021;-76
2022/06/06 00:24:03;;;;;;;7.78;5.35;;;12.80;94.60;;;;;;5064145;28;20040;-75
2022/06/06 00:26:31;;;;;;;5.93;5.30;;;12.80;94.60;;;;;;5071928;28;20480;-76
2022/06/06 00:28:58;;;;;;;6.15;4.20;;;12.80;94.70;;;;;;5071294;28;20044;-77
2022/06/06 00:37:00;;;;;;;9.63;4.60;;;12.70;95.00;;;;;;5072214;28;20073;-76
2022/06/06 00:39:26;;;;;;;7.32;5.10;;;12.70;95.00;;;;;;5071746;28;20116;-76
2022/06/06 00:41:54;;;;;;;8.48;5.20;;;12.70;95.00;;;;;;5069680;28;20035;-77
2022/06/06 00:44:29;;;;;;;5.13;4.63;;;12.70;95.10;;;;;;5071610;28;20120;-77
2022/06/06 00:47:14;;;;;;;5.78;4.13;;;12.70;95.20;;;;;;5061455;28;20070;-76
2022/06/06 00:49:50;;;;;;;6.15;4.47;;;12.70;95.20;;;;;;5071756;28;20040;-77
2022/06/06 00:52:37;;;;;;;8.32;4.75;;;12.60;95.30;;;;;;5072256;28;20032;-77
2022/06/06 00:55:19;;;;;;;7.63;5.50;;;12.60;95.30;;;;;;5071916;28;20028;-77
2022/06/06 00:57:54;;;;;;;6.35;4.65;;;12.60;95.50;;;;;;5071795;28;20484;-76
2022/06/06 01:00:22;;;;;;;7.40;4.60;;;12.60;95.60;;;;;;5070980;28;20028;-76
2022/06/06 01:02:51;;;;;;;10.80;5.22;;;12.60;95.70;;;;;;5071606;28;20330;-77
2022/06/06 01:05:19;;;;;;;7.78;5.53;;;12.60;95.80;;;;;;5071617;28;20055;-76
2022/06/06 01:07:45;;;;;;;5.95;4.90;;;12.50;95.80;;;;;;5071741;28;20111;-77
2022/06/06 01:10:11;;;;;;;9.95;5.50;;;12.50;95.90;;;;;;5071381;28;20115;-77
2022/06/06 01:12:39;;;;;;;8.05;5.40;;;12.50;96.00;;;;;;5071624;28;20027;-77
2022/06/06 01:15:08;;;;;;;7.90;4.70;;;12.60;96.10;;;;;;5071369;28;20151;-78
2022/06/06 01:17:53;;;;;;;9.75;5.50;;;12.60;96.20;;;;;;5070258;28;20029;-77
2022/06/06 01:20:34;;;;;;;8.63;5.50;;;12.60;96.30;;;;;;5071334;28;20048;-77
2022/06/06 01:23:18;;;;;;;6.68;5.40;;;12.60;96.20;;;;;;5071480;28;20036;-78
2022/06/06 01:26:05;;;;;;;10.02;4.93;;;12.60;96.20;;;;;;5057961;28;20374;-77
2022/06/06 01:28:59;;;;;;;7.32;5.70;;;12.60;96.30;;;;;;5071236;28;20063;-77
2022/06/06 01:31:48;;;;;;;6.00;5.25;;;12.60;96.30;;;;;;5071893;28;20017;-77
2022/06/06 01:34:22;;;;;;;9.13;5.07;;;12.60;96.30;;;;;;5070665;28;20021;-77
2022/06/06 01:36:52;;;;;;;7.90;5.28;;;12.60;96.40;;;;;;5071381;28;20036;-77
2022/06/06 01:39:20;;;;;;;11.32;5.55;;;12.70;96.50;;;;;;5019358;28;20032;-79
2022/06/06 01:42:10;;;;;;;7.55;5.55;;;12.70;96.40;;;;;;5072091;28;20070;-77
2022/06/06 01:44:47;;;;;;;6.35;4.95;;;12.70;96.30;;;;;;5079174;28;20052;-75
2022/06/06 01:47:18;;;;;;;7.63;4.60;;;12.80;96.30;;;;;;5077524;28;20063;-76
2022/06/06 01:49:45;;;;;;;6.55;5.65;;;12.80;96.30;;;;;;5053436;28;20079;-75
2022/06/06 01:52:14;;;;;;;9.70;6.50;;;12.90;96.20;;;;;;5071018;28;20408;-77
2022/06/06 01:54:41;;;;;;;5.50;4.70;;;13.00;96.00;;;;;;5074835;28;20013;-78
2022/06/06 01:57:08;;;;;;;;;;;13.00;95.80;;;;;;5075333;28;20474;-77
2022/06/06 01:59:34;;;;;;;5.85;4.57;;;13.10;95.60;;;;;;5056821;28;19904;-77
2022/06/06 02:02:00;;;;;;;7.22;5.25;;;13.10;95.50;;;;;;5074663;28;20508;-77
2022/06/06 02:04:26;;;;;;;6.88;4.53;;;13.10;95.60;;;;;;5074656;28;20108;-77
2022/06/06 02:06:52;;;;;;;6.82;4.65;;;13.10;95.50;;;;;;5073781;28;20020;-77
2022/06/06 02:09:18;;;;;;;10.48;5.57;;;13.20;95.60;;;;;;5074512;28;20486;-77
2022/06/06 02:11:44;;;;;;;6.90;4.85;;;13.20;95.30;;;;;;5074735;28;20378;-79
2022/06/06 02:14:11;;;;;;;7.07;5.35;;;13.30;95.10;;;;;;5074614;28;20028;-77
2022/06/06 02:16:38;;;;;;;;;;;13.30;94.90;;;;;;5074844;28;20016;-76
2022/06/06 02:19:05;;;;;;;9.45;4.70;;;13.30;94.70;;;;;;5074570;28;19908;-75
2022/06/06 02:21:31;;;;;;;8.68;5.82;;;13.30;94.70;;;;;;5074556;28;20048;-77
2022/06/06 02:23:57;;;;;;;8.15;5.15;;;13.30;94.60;;;;;;5073874;28;20044;-77
2022/06/06 02:26:23;;;;;;;8.15;5.05;;;13.40;94.60;;;;;;5056566;28;20024;-76
2022/06/06 02:28:49;;;;;;;8.27;4.93;;;13.40;94.50;;;;;;5074414;28;20515;-77
2022/06/06 02:31:15;;;;;;;7.15;5.28;;;13.40;94.40;;;;;;5074311;28;20036;-78
2022/06/06 02:33:41;;;;;;;6.53;5.32;;;13.50;94.30;;;;;;5089684;28;20033;-78
2022/06/06 02:36:07;;;;;;;8.73;5.53;;;13.50;94.30;;;;;;5056281;28;20020;-77
2022/06/06 02:38:32;;;;;;;8.23;4.80;;;13.50;94.20;;;;;;5089098;28;20505;-77
2022/06/06 02:41:07;;;;;;;8.98;5.18;;;13.60;94.10;;;;;;5074217;28;20087;-76
2022/06/06 02:43:43;;;;;;;8.60;5.50;;;13.60;94.00;;;;;;5074113;28;20049;-77
2022/06/06 02:46:11;;;;;;;7.50;5.10;;;13.60;93.90;;;;;;5074050;28;20096;-76
2022/06/06 02:48:38;;;;;;;10.68;5.13;;;13.70;93.90;;;;;;5073979;28;20094;-78
2022/06/06 02:51:05;;;;;;;9.02;5.10;;;13.70;93.80;;;;;;5074052;28;20017;-79
2022/06/06 02:53:31;;;;;;;5.03;4.50;;;13.80;93.70;;;;;;5073976;28;20067;-77
2022/06/06 02:55:57;;;;;;;6.05;5.38;;;13.90;93.70;;;;;;5073686;28;20042;-76
2022/06/06 02:58:25;;;;;;;11.27;6.27;;;14.00;93.50;;;;;;5055257;28;20461;-76
2022/06/06 03:00:59;;;;;;;6.57;4.43;;;14.10;93.20;;;;;;5073809;28;20142;-78
2022/06/06 03:03:25;;;;;;;6.20;4.65;;;14.20;93.00;;;;;;5073862;28;20036;-80
2022/06/06 03:06:05;;;;;;;8.13;5.35;;;14.30;92.80;;;;;;5073127;28;20402;-79
2022/06/06 03:09:25;;;;;;;9.75;6.43;;;14.50;92.40;;;;;;5061540;28;20427;-78
2022/06/06 03:12:10;;;;;;;6.18;4.95;;;14.60;92.10;;;;;;5070501;28;20036;-78
2022/06/06 03:14:54;;;;;;;6.78;5.57;;;14.60;92.00;;;;;;5072568;28;20023;-78
2022/06/06 03:20:51;;;;;;;7.63;5.35;;;14.80;91.60;;;;;;5068671;28;20027;-79
2022/06/06 03:23:24;;;;;;;8.48;5.40;;;14.80;91.50;;;;;;5073146;28;20436;-78
2022/06/06 03:26:17;;;;;;;9.07;5.60;;;14.80;91.50;;;;;;5049325;28;20444;-78
2022/06/06 03:28:48;;;;;;;9.63;5.25;;;14.70;91.80;;;;;;5065876;28;20028;-78
2022/06/06 03:31:23;;;;;;;9.18;6.20;;;14.80;91.90;;;;;;5080022;28;20112;-79
2022/06/06 03:33:52;;;;;;;7.97;5.10;;;14.90;91.50;;;;;;5073175;28;20028;-81
2022/06/06 03:36:32;;;;;;;8.50;6.20;;;15.00;91.30;;;;;;5073229;28;20059;-77
2022/06/06 03:39:20;;;;;;;7.82;5.18;;;15.00;91.00;;;;;;5073074;28;20035;-78
2022/06/06 03:41:48;;;;;;;8.75;6.20;;;15.10;91.00;;;;;;5073007;28;20025;-76
2022/06/06 03:44:44;;;;;;;9.15;5.22;;;15.10;91.00;;;;;;5072738;28;20028;-76
2022/06/06 03:47:33;;;;;;;8.52;5.68;;;15.20;90.90;;;;;;5071793;28;20052;-78
2022/06/06 03:50:22;;;;;;;6.10;5.30;;;15.30;90.70;;;;;;5072957;28;20391;-79
2022/06/06 03:52:57;;;;;;;7.22;5.15;;;15.30;90.50;;;;;;5072652;28;20025;-78
2022/06/06 03:55:37;;;;;;;7.97;5.15;;;15.30;90.50;;;;;;5072876;28;20021;-76
2022/06/06 03:58:03;;;;;;;7.50;5.47;;;15.40;90.20;;;;;;5072662;28;20107;-80
2022/06/06 04:00:33;;;;;;;7.97;5.20;;;15.50;90.20;;;;;;5051081;28;20017;-80
2022/06/06 04:03:00;;;;;;;6.82;5.50;;;15.60;90.20;;;;;;5071425;28;20028;-80
2022/06/06 04:05:29;;;;;;;9.60;6.40;;;15.70;90.10;;;;;;5072611;28;20375;-77
2022/06/06 04:07:55;;;;;;;10.00;5.65;;;15.80;89.30;;;;;;5072542;28;20060;-78
2022/06/06 04:10:36;;;;;;;6.00;5.40;;;15.90;89.60;;;;;;5072843;28;20433;-80
2022/06/06 04:13:44;;;;;;;10.38;5.43;;;16.00;89.00;;;;;;5072705;28;20020;-80
2022/06/06 04:16:20;;;;;;;8.27;5.80;;;16.10;87.90;;;;;;5071125;28;20040;-82
2022/06/06 04:18:56;;;;;;;8.95;5.88;;;16.10;87.10;;;;;;5072352;28;20027;-78
2022/06/06 04:21:27;;;;;;;13.00;6.38;;;16.10;87.10;;;;;;5071022;28;20032;-79
2022/06/06 04:24:14;;;;;;;7.97;5.95;;;16.10;86.50;;;;;;5072155;28;20040;-78
2022/06/06 04:26:58;;;;;;;8.98;5.70;;;16.20;86.70;;;;;;5071916;28;20024;-79
2022/06/06 04:29:44;;;;;;;8.63;5.63;;;16.30;86.90;;;;;;5072302;28;20485;-78
2022/06/06 04:32:39;;;;;;;8.65;5.93;;;16.40;86.60;;;;;;5058546;28;20383;-78
2022/06/06 04:35:34;;;;;;;9.40;6.32;;;16.40;86.00;;;;;;5072112;28;20545;-78
2022/06/06 04:38:10;;;;;;;8.43;6.25;;;16.50;85.80;;;;;;5071257;28;20047;-78
2022/06/06 04:40:46;;;;;;;8.18;5.07;;;16.60;85.50;;;;;;5071812;28;20028;-79
2022/06/06 04:43:24;;;;;;;6.88;5.53;;;16.70;84.70;;;;;;5071985;28;20385;-80
2022/06/06 04:46:02;;;;;;;6.80;5.43;;;16.80;84.00;;;;;;5071380;28;20082;-77
2022/06/06 04:48:30;;;;;;;5.85;4.93;;;16.80;83.70;;;;;;5071717;28;20135;-78
2022/06/06 04:50:57;;;;;;;6.07;4.13;;;16.90;83.40;;;;;;5071692;28;20017;-78
2022/06/06 04:53:25;;;;;;;5.60;4.57;;;16.80;80.90;;;;;;5070923;28;20028;-77
2022/06/06 04:55:52;;;;;;;10.18;4.70;;;16.90;81.80;;;;;;5071447;28;20025;-77
2022/06/06 04:58:20;;;;;;;6.30;4.32;;;17.00;81.20;;;;;;5071373;28;20017;-77
2022/06/06 05:00:46;;;;;;;7.20;4.20;;;17.10;80.90;;;;;;5071470;28;20389;-78
2022/06/06 05:03:13;;;;;;;7.57;4.18;;;17.20;79.70;;;;;;5053650;28;20518;-78
2022/06/06 05:05:44;;;;;;;6.28;4.03;;;17.30;79.90;;;;;;5071739;28;20020;-78
2022/06/06 05:08:51;;;;;;;6.88;4.20;;;17.50;78.50;;;;;;5052275;28;20025;-79
2022/06/06 05:11:50;;;;;;;5.38;4.47;;;18.10;78.60;;;;;;5033797;28;20036;-79
2022/06/06 05:14:28;;;;;;;7.13;4.13;;;19.40;75.30;;;;;;5087313;28;20079;-79
2022/06/06 05:17:29;;;;;;;5.40;4.28;;;20.70;69.80;;;;;;5061365;28;20017;-78
2022/06/06 05:20:01;;;;;;;7.53;4.30;;;21.80;65.70;;;;;;5060523;28;20024;-78
2022/06/06 05:22:45;;;;;;;9.43;4.28;;;22.70;62.70;;;;;;5071210;28;20036;-78
2022/06/06 05:25:22;;;;;;;4.88;3.72;;;23.80;57.60;;;;;;5071105;28;20028;-79
2022/06/06 05:27:54;;;;;;;5.22;4.72;;;23.80;57.20;;;;;;5072928;28;20020;-79
2022/06/06 05:30:26;;;;;;;6.97;4.45;;;23.80;55.80;;;;;;5091068;28;20024;-79
2022/06/06 05:33:07;;;;;;;5.22;4.45;;;23.90;55.80;;;;;;5075866;28;20024;-77
2022/06/06 05:35:57;;;;;;;7.32;4.53;;;24.20;55.10;;;;;;5074128;28;20024;-78
2022/06/06 05:39:00;;;;;;;5.35;4.03;;;24.80;54.70;;;;;;5075684;28;20036;-80
2022/06/06 05:42:04;;;;;;;5.45;3.72;;;26.00;53.10;;;;;;5064506;28;20017;-79
2022/06/06 05:44:40;;;;;;;6.38;3.60;;;26.70;50.70;;;;;;5075324;28;20492;-79
2022/06/06 05:47:12;;;;;;;;;;;26.60;48.80;;;;;;5075905;28;20044;-78
2022/06/06 05:50:10;;;;;;;5.85;3.80;;;26.30;49.50;;;;;;5061268;28;20010;-81
2022/06/06 05:52:45;;;;;;;7.05;4.63;;;26.00;50.00;;;;;;5055967;28;20028;-79
2022/06/06 05:55:50;;;;;;;5.43;4.40;;;25.90;50.10;;;;;;5074768;28;20040;-80
2022/06/06 05:58:24;;;;;;;8.20;4.47;;;27.30;49.40;;;;;;5043179;28;20036;-79
2022/06/06 06:01:16;;;;;;;6.75;5.13;;;27.90;48.20;;;;;;5074657;28;20104;-80
2022/06/06 06:03:54;;;;;;;5.45;4.55;;;28.90;47.40;;;;;;5045898;28;20041;-80
2022/06/06 06:06:23;;;;;;;5.68;4.00;;;;;;;;;;5074591;28;20123;-78
2022/06/06 06:08:50;;;;;;;7.60;4.50;;;29.70;42.50;;;;;;5073966;28;20016;-79
2022/06/06 06:11:37;;;;;;;5.43;4.13;;;29.20;43.70;;;;;;5075113;28;20084;-79
2022/06/06 06:14:06;;;;;;;7.53;4.25;;;;;;;;;;5074648;28;20032;-79
2022/06/06 06:16:36;;;;;;;5.15;3.70;;;29.50;41.60;;;;;;5074484;28;20021;-79
2022/06/06 06:19:07;;;;;;;6.65;3.70;;;29.60;42.30;;;;;;5074283;28;20021;-78
2022/06/06 06:21:41;;;;;;;6.75;3.83;;;30.00;41.50;;;;;;5076391;28;20158;-80
2022/06/06 06:24:11;;;;;;;6.38;4.05;;;;;;;;;;5073121;28;20028;-80
2022/06/06 06:26:38;;;;;;;6.95;3.63;;;30.70;39.60;;;;;;5074518;28;20473;-79
2022/06/06 06:29:06;;;;;;;;;;;30.70;40.20;;;;;;5074283;28;20032;-81
2022/06/06 06:31:53;;;;;;;4.88;3.80;;;29.80;40.70;;;;;;5073594;28;20034;-80
2022/06/06 06:34:30;;;;;;;9.00;3.80;;;28.70;42.50;;;;;;5060316;28;20035;-80
2022/06/06 06:37:43;;;;;;;4.80;3.78;;;28.70;42.50;;;;;;5073867;28;20060;-79
2022/06/06 06:40:46;;;;;;;4.53;3.85;;;28.80;42.80;;;;;;5017081;28;20042;-80
2022/06/06 06:43:31;;;;;;;4.75;3.40;;;29.30;41.70;;;;;;5072434;28;20029;-77
2022/06/06 06:46:01;;;;;;;6.22;4.00;;;28.90;41.50;;;;;;5073595;28;20021;-80
2022/06/06 06:48:34;;;;;;;5.18;3.28;;;29.60;41.20;;;;;;5073716;28;20513;-79
2022/06/06 06:51:06;;;;;;;4.95;4.00;;;30.20;40.10;;;;;;5073697;28;20025;-80
2022/06/06 06:54:13;;;;;;;5.20;3.45;;;30.20;40.30;;;;;;5073998;28;20028;-79
2022/06/06 06:56:42;;;;;;;3.75;2.95;;;31.00;40.50;;;;;;5068040;28;20497;-81
2022/06/06 06:59:56;;;;;;;5.30;3.53;;;31.50;38.10;;;;;;5074293;28;20083;-79
2022/06/06 07:08:55;;;;;;;8.13;3.92;;;30.00;40.90;;;;;;5073426;28;20031;-80
2022/06/06 07:11:59;;;;;;;3.50;3.20;;;29.40;40.00;;;;;;5010219;28;20479;-79
2022/06/06 07:15:04;;;;;;;3.97;3.53;;;27.40;41.80;;;;;;4994498;28;20057;-79
2022/06/06 07:17:34;;;;;;;5.18;3.60;;;27.90;43.00;;;;;;5012635;28;20057;-81
2022/06/06 07:20:06;;;;;;;5.65;4.07;;;28.40;42.40;;;;;;5011110;28;20052;-79
2022/06/06 07:25:25;;;;;;;5.13;3.42;;;28.50;40.40;;;;;;5011353;28;20104;-79
2022/06/06 07:27:51;;;;;;;6.80;4.80;;;27.40;41.90;;;;;;5011260;28;20028;-80
2022/06/06 07:30:18;;;;;;;8.82;3.72;;;26.10;43.70;;;;;;5013205;28;20403;-80
2022/06/06 07:33:16;;;;;;;5.22;3.80;;;25.00;46.20;;;;;;5011035;28;20033;-81
2022/06/06 07:36:17;;;;;;;6.72;3.45;;;25.80;46.00;;;;;;5011632;28;20057;-79
2022/06/06 07:38:52;;;;;;;5.60;3.42;;;25.60;45.10;;;;;;4995940;28;20034;-80
2022/06/06 07:41:56;;;;;;;4.68;3.63;;;24.40;47.30;;;;;;5011574;28;20070;-80
2022/06/06 07:44:28;;;;;;;4.05;3.63;;;23.30;48.30;;;;;;5015804;28;20049;-79
2022/06/06 07:47:06;;;;;;;8.18;4.60;;;22.70;50.90;;;;;;5065456;28;20498;-80
2022/06/06 07:49:47;;;;;;;5.55;4.60;;;24.10;51.20;;;;;;5073145;28;20508;-80
2022/06/06 07:52:22;;;;;;;7.43;3.63;;;27.60;46.90;;;;;;5073180;28;20035;-79
2022/06/06 07:55:43;;;;;;;8.20;4.97;;;28.90;42.70;;;;;;5063467;28;20047;-79
2022/06/06 07:58:32;;;;;;;4.00;3.08;;;30.10;40.50;;;;;;5031590;28;20519;-79
2022/06/06 08:01:11;;;;;;;7.55;3.40;;;28.20;40.60;;;;;;5066762;28;20218;-79
2022/06/06 08:04:12;;;;;;;5.47;3.70;;;26.30;43.10;;;;;;5071398;28;20047;-80
2022/06/06 08:06:43;;;;;;;6.88;4.10;;;24.50;46.20;;;;;;5010343;28;20037;-79
2022/06/06 08:09:40;;;;;;;8.93;3.90;;;23.30;48.70;;;;;;5058502;28;20037;-80
2022/06/06 08:12:38;;;;;;;8.75;3.55;;;22.70;49.70;;;;;;5061560;28;20008;-79
2022/06/06 08:15:04;;;;;;;6.20;4.25;;;;;;;;;;5072177;28;20202;-80
2022/06/06 08:17:51;;;;;;;4.75;3.38;;;23.00;73.80;;;;;;5054268;28;20024;-78
2022/06/06 08:20:36;;;;;;;7.05;3.50;;;25.60;49.10;;;;;;5067010;28;20021;-80
2022/06/06 08:23:06;;;;;;;6.05;3.20;;;29.20;44.00;;;;;;5071965;28;20035;-80
2022/06/06 08:25:36;;;;;;;6.93;3.53;;;30.30;39.40;;;;;;5072368;28;20024;-79
2022/06/06 08:28:04;;;;;;;3.35;3.05;;;29.90;39.10;;;;;;5071683;28;20028;-79
2022/06/06 08:30:30;;;;;;;6.35;3.35;;;29.10;40.10;;;;;;5071739;28;20382;-81
2022/06/06 08:32:56;;;;;;;4.93;3.35;;;28.00;41.20;;;;;;5071790;28;20025;-80
2022/06/06 08:35:28;;;;;;;6.55;3.72;;;26.80;42.80;;;;;;5072101;28;20112;-81
2022/06/06 08:38:04;;;;;;;4.32;3.60;;;26.00;44.20;;;;;;5086347;28;20017;-80
2022/06/06 08:40:42;;;;;;;6.50;4.43;;;25.10;45.50;;;;;;5071413;28;20032;-78
2022/06/06 08:44:02;;;;;;;6.53;3.60;;;25.00;47.40;;;;;;5078609;28;20064;-78
2022/06/06 08:46:49;;;;;;;5.50;3.33;;;28.10;44.80;;;;;;4987287;28;20164;-83
2022/06/06 08:52:34;;;;;;;;;;;32.60;38.00;;;;;;5073993;28;20090;-81
2022/06/06 08:55:28;;;;;;;7.35;3.47;;;33.60;38.00;;;;;;5071710;28;19916;-79
2022/06/06 08:58:06;;;;;;;6.18;3.97;;;32.30;36.60;;;;;;5071986;28;20044;-81
2022/06/06 09:00:40;;;;;;;3.67;2.95;;;32.30;37.20;;;;;;5071666;28;20128;-81
2022/06/06 09:03:49;;;;;;;3.65;2.78;;;33.90;35.50;;;;;;5071214;28;20028;-81
2022/06/06 09:06:33;;;;;;;4.63;2.33;;;;;;;;;;5034694;28;20087;-80
2022/06/06 09:09:04;;;;;;;8.05;2.80;;;34.60;33.90;;;;;;5071627;28;20037;-79
2022/06/06 09:12:04;;;;;;;4.93;3.70;;;34.80;32.50;;;;;;5070622;28;20039;-80
2022/06/06 09:14:36;;;;;;;5.65;2.50;;;33.70;33.70;;;;;;5066631;28;20029;-82
2022/06/06 09:17:23;;;;;;;3.72;2.58;;;31.60;34.30;;;;;;5071599;28;20020;-80
2022/06/06 09:20:18;;;;;;;5.43;3.10;;;29.50;36.70;;;;;;5071559;28;20402;-80
2022/06/06 09:23:22;;;;;;;7.65;3.78;;;28.00;39.40;;;;;;5071251;28;20096;-80
2022/06/06 09:26:00;;;;;;;3.70;3.25;;;28.70;40.10;;;;;;5061461;28;20094;-80
2022/06/06 09:28:50;;;;;;;5.47;2.80;;;30.90;38.10;;;;;;5071380;28;20120;-81
2022/06/06 09:31:51;;;;;;;3.28;2.40;;;32.20;35.40;;;;;;5070717;28;20040;-82
2022/06/06 09:35:01;;;;;;;4.78;3.90;;;32.80;34.10;;;;;;5048581;28;20033;-79
2022/06/06 09:37:32;;;;;;;3.30;2.97;;;31.20;34.70;;;;;;5009374;28;20542;-80
2022/06/06 09:40:10;;;;;;;5.55;3.13;;;29.90;37.10;;;;;;5057202;28;20101;-79
2022/06/06 09:42:50;;;;;;;4.57;2.80;;;30.60;37.80;;;;;;5071145;28;20464;-79
2022/06/06 09:45:31;;;;;;;4.82;2.22;;;31.80;35.70;;;;;;5071622;28;20024;-80
2022/06/06 09:48:10;;;;;;;6.10;2.70;;;30.70;35.40;;;;;;5085284;28;20070;-82
2022/06/06 09:50:54;;;;;;;3.65;3.13;;;29.00;37.00;;;;;;5072479;28;20402;-80
2022/06/06 09:59:01;;;;;;;5.93;3.00;;;27.70;39.10;;;;;;5060212;28;20024;-82
2022/06/06 09:59:36;;;;;;;4.35;3.17;;;25.50;42.50;;;;;;5071888;28;20098;-81
2022/06/06 10:02:11;;;;;;;5.38;2.83;;;25.20;43.70;;;;;;5088892;28;20036;-80
2022/06/06 10:05:15;;;;;;;7.25;2.72;;;25.80;43.00;;;;;;5070055;28;20111;-80
2022/06/06 10:07:50;;;;;;;4.25;2.95;;;27.70;41.40;;;;;;5052468;28;20063;-80
2022/06/06 10:10:52;;;;;;;6.95;3.10;;;29.10;39.60;;;;;;5070648;28;20024;-79
2022/06/06 10:13:37;;;;;;;3.92;2.58;;;31.10;38.10;;;;;;5071165;28;20104;-80
2022/06/06 10:16:17;;;;;;;5.10;3.78;;;31.80;36.00;;;;;;5089959;28;20074;-81
2022/06/06 10:19:19;;;;;;;2.58;2.15;;;31.40;35.40;;;;;;5073551;28;20866;-80
2022/06/06 10:22:17;;;;;;;5.95;2.38;;;31.90;35.20;;;;;;5060101;28;20017;-81
2022/06/06 10:25:07;;;;;;;4.68;2.00;;;33.40;34.80;;;;;;5066813;28;20045;-81
2022/06/06 10:27:57;;;;;;;4.03;2.17;;;34.10;33.70;;;;;;5064270;28;20029;-80
2022/06/06 10:30:41;;;;;;;4.43;2.53;;;32.90;32.70;;;;;;5074162;28;20389;-79
2022/06/06 10:33:54;;;;;;;6.22;2.30;;;30.80;34.40;;;;;;5076198;28;20052;-79
2022/06/06 10:36:35;;;;;;;3.72;2.47;;;28.70;37.00;;;;;;5068303;28;20067;-80
2022/06/06 10:39:28;;;;;;;6.15;3.17;;;27.30;38.60;;;;;;5074672;28;20103;-80
2022/06/06 10:42:16;;;;;;;5.55;2.97;;;26.30;40.30;;;;;;5074413;28;20031;-83
2022/06/06 10:45:06;;;;;;;4.13;2.50;;;25.40;42.40;;;;;;5061533;28;20039;-81
2022/06/06 10:47:45;;;;;;;5.63;2.67;;;24.40;44.20;;;;;;5073539;28;20423;-80
2022/06/06 10:50:23;;;;;;;4.35;2.53;;;23.70;45.70;;;;;;5073753;28;20115;-79
2022/06/06 10:53:24;;;;;;;4.53;3.10;;;23.30;46.50;;;;;;5072674;28;20554;-80
2022/06/06 10:56:06;;;;;;;9.02;3.20;;;;;;;;;;5068976;28;20127;-80
2022/06/06 10:59:12;;;;;;;5.90;3.00;;;22.80;47.40;;;;;;5074721;28;20025;-79
2022/06/06 11:02:22;;;;;;;5.93;2.65;;;22.80;48.20;;;;;;5061556;28;20035;-80
2022/06/06 11:04:57;;;;;;;5.63;3.03;;;22.60;48.10;;;;;;5054209;28;20075;-81
2022/06/06 11:07:59;;;;;;;4.15;2.83;;;22.40;48.60;;;;;;5072563;28;20035;-79
2022/06/06 11:10:28;;;;;;;4.95;2.60;;;22.40;49.10;;;;;;5062865;28;20021;-79
2022/06/06 11:13:31;;;;;;;3.45;2.50;;;22.60;48.50;;;;;;5073433;28;20017;-80
2022/06/06 11:16:15;;;;;;;4.25;2.42;;;22.70;48.20;;;;;;5073597;28;20025;-81
2022/06/06 11:19:05;;;;;;;4.82;2.60;;;22.80;48.20;;;;;;5060664;28;20028;-81
2022/06/06 11:21:54;;;;;;;6.18;2.40;;;22.80;47.80;;;;;;5055128;28;20028;-81
2022/06/06 11:24:39;;;;;;;4.25;2.42;;;22.60;47.50;;;;;;5089084;28;20063;-79
2022/06/06 11:27:25;;;;;;;3.72;1.88;;;22.50;46.60;;;;;;5059626;28;20016;-80
2022/06/06 11:30:06;;;;;;;2.35;1.90;;;22.40;46.20;;;;;;5073104;28;20024;-80
2022/06/06 11:32:44;;;;;;;4.38;1.88;;;22.40;46.60;;;;;;5088923;28;20104;-81
2022/06/06 11:35:46;;;;;;;5.03;1.98;;;22.50;46.50;;;;;;5073624;28;20051;-80
2022/06/06 11:38:11;;;;;;;2.13;1.92;;;22.70;46.30;;;;;;5063724;28;20024;-83
2022/06/06 11:41:04;;;;;;;3.70;2.90;;;22.80;45.60;;;;;;5073158;28;20485;-80
2022/06/06 11:43:54;;;;;;;6.57;1.70;;;23.00;45.40;;;;;;5073092;28;20043;-81
2022/06/06 11:46:35;;;;;;;2.55;2.00;;;23.00;44.50;;;;;;5059974;28;20032;-81
2022/06/06 11:49:48;;;;;;;3.55;2.40;;;22.80;44.70;;;;;;5072570;28;20066;-80
2022/06/06 11:52:25;;;;;;;4.53;2.33;;;22.70;45.70;;;;;;5036932;28;20041;-80
2022/06/06 11:55:43;;;;;;;6.47;2.70;;;22.50;46.30;;;;;;5062087;28;20474;-81
2022/06/06 11:58:30;;;;;;;4.18;2.50;;;22.30;46.60;;;;;;5063378;28;20028;-81
2022/06/06 12:01:32;;;;;;;2.83;2.30;;;22.10;46.80;;;;;;5072896;28;20521;-80
2022/06/06 12:04:15;;;;;;;4.68;2.00;;;22.00;47.10;;;;;;5072745;28;20374;-80
2022/06/06 12:07:14;;;;;;;3.20;2.28;;;22.00;47.60;;;;;;5059301;28;20048;-80
2022/06/06 12:09:52;;;;;;;2.92;1.95;;;22.00;47.50;;;;;;5087679;28;20112;-80
2022/06/06 12:12:27;;;;;;;8.00;1.83;;;22.00;46.60;;;;;;5072311;28;20063;-80
2022/06/06 12:15:28;;;;;;;4.60;2.05;;;21.90;46.10;;;;;;5071297;28;20024;-81
2022/06/06 12:18:20;;;;;;;5.18;1.88;;;21.80;46.90;;;;;;5037277;28;20072;-80
2022/06/06 12:21:23;;;;;;;3.30;2.13;;;21.80;45.40;;;;;;5073797;28;20020;-79
2022/06/06 12:24:30;;;;;;;7.10;1.88;;;21.80;46.40;;;;;;5063158;28;20033;-82
2022/06/06 12:27:22;;;;;;;2.60;1.92;;;21.90;46.30;;;;;;5073052;28;20540;-82
2022/06/06 12:29:57;;;;;;;4.82;1.80;;;22.00;45.40;;;;;;5072228;28;20103;-80
2022/06/06 12:32:44;;;;;;;6.55;1.75;;;22.10;44.00;;;;;;5086542;28;20035;-80
2022/06/06 12:35:28;;;;;;;8.68;2.10;;;22.10;44.60;;;;;;5087409;28;20123;-80
2022/06/06 12:38:27;;;;;;;3.15;2.10;;;22.20;43.80;;;;;;5059007;28;20135;-80
2022/06/06 12:40:56;;;;;;;2.72;1.77;;;22.20;44.10;;;;;;5071952;28;20074;-82
2022/06/06 12:43:40;;;;;;;3.58;1.67;;;22.10;44.40;;;;;;5073120;28;20355;-81
2022/06/06 12:46:26;;;;;;;3.35;1.77;;;22.10;44.70;;;;;;5071928;28;20047;-80
2022/06/06 12:48:58;;;;;;;5.13;1.85;;;22.10;44.30;;;;;;5070762;28;20526;-80
2022/06/06 12:51:55;;;;;;;2.13;1.60;;;22.10;45.00;;;;;;5072197;28;20036;-79
2022/06/06 12:58:17;;;;;;;3.45;1.92;;;22.60;42.90;;;;;;5071609;28;20402;-82
2022/06/06 13:04:01;;;;;;;3.65;1.48;;;22.90;42.90;;;;;;5059895;28;20405;-79
2022/06/06 13:06:30;;;;;;;7.75;2.05;;;23.10;42.70;;;;;;5087756;28;20086;-80
2022/06/06 13:09:15;;;;;;;5.53;1.85;;;23.10;42.50;;;;;;5071720;28;20043;-79
2022/06/06 13:11:50;;;;;;;5.70;2.15;;;23.00;42.70;;;;;;5071431;28;20021;-79
2022/06/06 13:14:44;;;;;;;1.73;1.45;;;22.90;43.00;;;;;;5071527;28;20032;-80
2022/06/06 13:17:16;;;;;;;4.65;1.23;;;22.80;41.80;;;;;;5076134;28;20433;-81
2022/06/06 13:20:03;;;;;;;2.78;1.30;;;22.70;42.20;;;;;;5052591;28;20485;-81
2022/06/06 13:22:42;;;;;;;2.90;1.58;;;22.60;43.10;;;;;;5071665;28;20044;-80
2022/06/06 13:25:28;;;;;;;2.35;1.50;;;22.70;43.90;;;;;;5071573;28;20028;-82
2022/06/06 13:28:18;;;;;;;2.25;1.48;;;22.90;43.80;;;;;;5053579;28;20060;-80
2022/06/06 13:30:47;;;;;;;3.15;1.52;;;23.00;42.90;;;;;;5055486;28;20029;-81
2022/06/06 13:33:49;;;;;;;3.97;1.75;;;23.00;43.40;;;;;;5086942;28;20115;-82
2022/06/06 13:36:36;;;;;;;2.42;1.42;;;23.10;43.40;;;;;;5059066;28;20085;-81
2022/06/06 13:39:16;;;;;;;4.13;1.98;;;23.10;43.70;;;;;;5054437;28;20045;-80
2022/06/06 13:41:46;;;;;;;3.40;1.98;;;23.10;43.80;;;;;;5071652;28;20017;-81
2022/06/06 13:44:39;;;;;;;5.32;2.60;;;23.00;44.60;;;;;;5071375;28;20025;-83
2022/06/06 13:47:26;;;;;;;2.20;1.42;;;22.90;45.20;;;;;;5071612;28;20064;-81
2022/06/06 13:49:57;;;;;;;;;;;22.80;44.50;;;;;;5074830;28;20040;-80
2022/06/06 13:52:48;;;;;;;2.97;1.77;;;22.70;44.70;;;;;;5091051;28;19915;-81
2022/06/06 13:55:37;;;;;;;4.38;1.75;;;22.70;44.90;;;;;;5065761;28;20108;-81
2022/06/06 13:58:48;;;;;;;3.33;1.77;;;22.60;45.10;;;;;;5090704;28;20116;-80
2022/06/06 14:01:45;;;;;;;2.42;1.63;;;22.80;44.60;;;;;;5071313;28;20154;-81
2022/06/06 14:04:25;;;;;;;4.30;1.70;;;22.80;44.60;;;;;;5074858;28;20035;-78
2022/06/06 14:07:19;;;;;;;2.80;1.60;;;22.80;44.10;;;;;;5077969;28;20104;-80
2022/06/06 14:09:47;;;;;;;1.85;0.95;;;22.70;43.00;;;;;;5081571;28;20013;-81
2022/06/06 14:12:46;;;;;;;2.17;1.30;;;22.50;43.30;;;;;;5077415;28;20017;-82
2022/06/06 14:15:19;;;;;;;5.88;1.73;;;22.40;43.90;;;;;;5062040;28;20107;-80
2022/06/06 14:18:04;;;;;;;18.70;2.75;;;22.20;44.60;;;;;;5074633;28;20077;-79
2022/06/06 14:20:42;;;;;;;10.02;2.53;;;22.10;46.40;;;;;;5063727;28;20086;-82
2022/06/06 14:23:23;;;;;;;10.45;2.03;;;21.70;48.30;;;;;;5073713;28;20430;-79
2022/06/06 14:25:53;;;;;;;8.75;2.22;;;21.50;49.40;;;;;;5075308;28;20639;-82
2022/06/06 14:28:26;;;;;;;5.30;1.45;;;21.20;50.90;;;;;;5074384;28;20024;-80
2022/06/06 14:30:52;;;;;;;6.68;1.75;;;20.80;52.20;;;;;;5075211;28;20020;-79
2022/06/06 14:33:26;;;;;;;8.88;2.17;;;20.60;53.70;;;;;;5073620;28;20050;-82